KICR

Winner Regional Airport

Winner, South Dakota, USA
METAR KICR 151853Z AUTO 14009KT 10SM OVC070 M10/M18 A3006 RMK AO2 SLP220 T11001183
Observed Flight Rules
Feb-15 @ 18:53 UTC (40 minutes ago) Visual Flight Rules
Wind Visibility Clouds
140° at 9 knots 10 miles
  • Overcast at 7,000' AGL
Temperatures Readings
Current -10°C / 14°F
Dewpoint -18°C / -0°F
Humidity 52%
Altimeter 30.06" Hg
Pressure 1022 hPa
Elevation 621
METAR KICR 151853Z AUTO 14009KT 10SM OVC070 M10/M18 A3006 RMK AO2 SLP220 T11001183
Observed Flight Rules
Feb-15 @ 18:53 UTC
(40 minutes ago)
VFR
Wind Visibility
140° at 9 knots 10 miles
Clouds
  • Overcast at 7,000' AGL
Temperature Dewpoint
-10°C / 14°F -18°C / -0°F
Humidity Altimeter Pressure
52% 30.06" Hg 1022 hPa